sensor_id;sensor_type;location;lat;lon;timestamp;P1;durP1;ratioP1;P2;durP2;ratioP2
55210;SDS011;41082;52.822;6.666;2023-12-20T00:00:04;7.53;;;0.70;;
55210;SDS011;41082;52.822;6.666;2023-12-20T00:02:31;8.82;;;0.77;;
55210;SDS011;41082;52.822;6.666;2023-12-20T00:04:56;5.85;;;0.70;;
55210;SDS011;41082;52.822;6.666;2023-12-20T00:07:22;8.93;;;0.63;;
55210;SDS011;41082;52.822;6.666;2023-12-20T00:09:47;12.55;;;2.45;;
55210;SDS011;41082;52.822;6.666;2023-12-20T00:12:13;8.98;;;0.88;;
55210;SDS011;41082;52.822;6.666;2023-12-20T00:14:39;8.55;;;0.75;;
55210;SDS011;41082;52.822;6.666;2023-12-20T00:17:04;11.35;;;0.90;;
55210;SDS011;41082;52.822;6.666;2023-12-20T00:19:30;14.05;;;0.80;;
55210;SDS011;41082;52.822;6.666;2023-12-20T00:21:55;11.35;;;0.60;;
55210;SDS011;41082;52.822;6.666;2023-12-20T00:24:21;12.55;;;1.00;;
55210;SDS011;41082;52.822;6.666;2023-12-20T00:26:46;8.75;;;0.90;;
55210;SDS011;41082;52.822;6.666;2023-12-20T00:29:12;8.98;;;0.52;;
55210;SDS011;41082;52.822;6.666;2023-12-20T00:31:38;12.43;;;1.40;;
55210;SDS011;41082;52.822;6.666;2023-12-20T00:34:03;16.55;;;2.22;;
55210;SDS011;41082;52.822;6.666;2023-12-20T00:36:29;11.07;;;0.80;;
55210;SDS011;41082;52.822;6.666;2023-12-20T00:38:54;14.13;;;0.98;;
55210;SDS011;41082;52.822;6.666;2023-12-20T00:41:20;15.25;;;1.02;;
55210;SDS011;41082;52.822;6.666;2023-12-20T00:43:46;10.13;;;0.60;;
55210;SDS011;41082;52.822;6.666;2023-12-20T00:46:11;7.85;;;0.98;;
55210;SDS011;41082;52.822;6.666;2023-12-20T00:48:37;11.52;;;1.02;;
55210;SDS011;41082;52.822;6.666;2023-12-20T00:51:03;14.20;;;0.70;;
55210;SDS011;41082;52.822;6.666;2023-12-20T00:53:28;10.27;;;0.60;;
55210;SDS011;41082;52.822;6.666;2023-12-20T00:55:54;17.42;;;0.80;;
55210;SDS011;41082;52.822;6.666;2023-12-20T00:58:20;11.60;;;0.70;;
55210;SDS011;41082;52.822;6.666;2023-12-20T01:00:46;7.45;;;0.90;;
55210;SDS011;41082;52.822;6.666;2023-12-20T01:03:11;12.77;;;1.13;;
55210;SDS011;41082;52.822;6.666;2023-12-20T01:05:37;11.02;;;0.77;;
55210;SDS011;41082;52.822;6.666;2023-12-20T01:08:03;15.05;;;1.00;;
55210;SDS011;41082;52.822;6.666;2023-12-20T01:10:29;10.65;;;0.75;;
55210;SDS011;41082;52.822;6.666;2023-12-20T01:12:55;26.27;;;2.45;;
55210;SDS011;41082;52.822;6.666;2023-12-20T01:15:20;10.93;;;1.05;;
55210;SDS011;41082;52.822;6.666;2023-12-20T01:17:46;13.07;;;1.10;;
55210;SDS011;41082;52.822;6.666;2023-12-20T01:20:13;13.20;;;1.30;;
55210;SDS011;41082;52.822;6.666;2023-12-20T01:22:38;14.20;;;0.90;;
55210;SDS011;41082;52.822;6.666;2023-12-20T01:25:04;22.48;;;2.35;;
55210;SDS011;41082;52.822;6.666;2023-12-20T01:27:30;21.98;;;1.10;;
55210;SDS011;41082;52.822;6.666;2023-12-20T01:29:56;15.80;;;1.48;;
55210;SDS011;41082;52.822;6.666;2023-12-20T01:32:22;13.73;;;1.20;;
55210;SDS011;41082;52.822;6.666;2023-12-20T01:34:47;16.90;;;1.50;;
55210;SDS011;41082;52.822;6.666;2023-12-20T01:37:13;19.08;;;2.15;;
55210;SDS011;41082;52.822;6.666;2023-12-20T01:39:39;13.27;;;1.10;;
55210;SDS011;41082;52.822;6.666;2023-12-20T01:42:05;18.85;;;1.38;;
55210;SDS011;41082;52.822;6.666;2023-12-20T01:44:30;13.23;;;1.10;;
55210;SDS011;41082;52.822;6.666;2023-12-20T01:46:56;18.10;;;1.27;;
55210;SDS011;41082;52.822;6.666;2023-12-20T01:49:22;11.07;;;1.13;;
55210;SDS011;41082;52.822;6.666;2023-12-20T01:51:48;10.95;;;1.25;;
55210;SDS011;41082;52.822;6.666;2023-12-20T01:54:15;13.32;;;1.00;;
55210;SDS011;41082;52.822;6.666;2023-12-20T01:56:41;14.35;;;1.35;;
55210;SDS011;41082;52.822;6.666;2023-12-20T01:59:07;15.48;;;1.98;;
55210;SDS011;41082;52.822;6.666;2023-12-20T02:01:34;18.63;;;1.60;;
55210;SDS011;41082;52.822;6.666;2023-12-20T02:04:00;18.10;;;1.63;;
55210;SDS011;41082;52.822;6.666;2023-12-20T02:06:29;22.40;;;1.25;;
55210;SDS011;41082;52.822;6.666;2023-12-20T02:08:57;17.17;;;1.40;;
55210;SDS011;41082;52.822;6.666;2023-12-20T02:11:23;19.42;;;1.90;;
55210;SDS011;41082;52.822;6.666;2023-12-20T02:13:50;12.23;;;2.35;;
55210;SDS011;41082;52.822;6.666;2023-12-20T02:16:16;15.32;;;1.63;;
55210;SDS011;41082;52.822;6.666;2023-12-20T02:18:42;14.63;;;1.50;;
55210;SDS011;41082;52.822;6.666;2023-12-20T02:21:09;13.55;;;1.55;;
55210;SDS011;41082;52.822;6.666;2023-12-20T02:23:35;22.33;;;1.83;;
55210;SDS011;41082;52.822;6.666;2023-12-20T02:26:01;18.23;;;1.90;;
55210;SDS011;41082;52.822;6.666;2023-12-20T02:28:27;21.83;;;1.50;;
55210;SDS011;41082;52.822;6.666;2023-12-20T02:30:53;16.38;;;1.50;;
55210;SDS011;41082;52.822;6.666;2023-12-20T02:33:19;16.80;;;1.58;;
55210;SDS011;41082;52.822;6.666;2023-12-20T02:35:44;15.05;;;1.38;;
55210;SDS011;41082;52.822;6.666;2023-12-20T02:38:10;17.42;;;2.60;;
55210;SDS011;41082;52.822;6.666;2023-12-20T02:40:36;16.80;;;1.63;;
55210;SDS011;41082;52.822;6.666;2023-12-20T02:43:01;18.13;;;2.50;;
55210;SDS011;41082;52.822;6.666;2023-12-20T02:45:27;19.83;;;1.70;;
55210;SDS011;41082;52.822;6.666;2023-12-20T02:47:52;17.90;;;1.90;;
55210;SDS011;41082;52.822;6.666;2023-12-20T02:50:18;15.68;;;1.92;;
55210;SDS011;41082;52.822;6.666;2023-12-20T02:52:47;20.17;;;1.60;;
55210;SDS011;41082;52.822;6.666;2023-12-20T02:55:12;15.25;;;1.92;;
55210;SDS011;41082;52.822;6.666;2023-12-20T02:57:38;15.18;;;2.42;;
55210;SDS011;41082;52.822;6.666;2023-12-20T03:00:07;19.02;;;2.22;;
55210;SDS011;41082;52.822;6.666;2023-12-20T03:02:34;15.85;;;1.67;;
55210;SDS011;41082;52.822;6.666;2023-12-20T03:05:00;17.25;;;2.97;;
55210;SDS011;41082;52.822;6.666;2023-12-20T03:07:25;16.00;;;2.03;;
55210;SDS011;41082;52.822;6.666;2023-12-20T03:09:51;16.30;;;1.80;;
55210;SDS011;41082;52.822;6.666;2023-12-20T03:12:17;19.17;;;3.30;;
55210;SDS011;41082;52.822;6.666;2023-12-20T03:14:43;16.52;;;1.65;;
55210;SDS011;41082;52.822;6.666;2023-12-20T03:17:09;15.98;;;1.38;;
55210;SDS011;41082;52.822;6.666;2023-12-20T03:19:35;19.08;;;1.95;;
55210;SDS011;41082;52.822;6.666;2023-12-20T03:22:00;18.00;;;2.05;;
55210;SDS011;41082;52.822;6.666;2023-12-20T03:24:26;15.38;;;1.98;;
55210;SDS011;41082;52.822;6.666;2023-12-20T03:26:52;18.30;;;1.92;;
55210;SDS011;41082;52.822;6.666;2023-12-20T03:29:18;20.38;;;2.35;;
55210;SDS011;41082;52.822;6.666;2023-12-20T03:31:44;19.75;;;2.13;;
55210;SDS011;41082;52.822;6.666;2023-12-20T03:34:10;16.70;;;2.45;;
55210;SDS011;41082;52.822;6.666;2023-12-20T03:36:36;23.25;;;2.22;;
55210;SDS011;41082;52.822;6.666;2023-12-20T03:39:02;18.48;;;2.10;;
55210;SDS011;41082;52.822;6.666;2023-12-20T03:41:28;27.20;;;3.55;;
55210;SDS011;41082;52.822;6.666;2023-12-20T03:43:53;21.42;;;2.30;;
55210;SDS011;41082;52.822;6.666;2023-12-20T03:46:19;21.63;;;2.30;;
55210;SDS011;41082;52.822;6.666;2023-12-20T03:48:44;23.48;;;2.47;;
55210;SDS011;41082;52.822;6.666;2023-12-20T03:51:10;18.15;;;2.55;;
55210;SDS011;41082;52.822;6.666;2023-12-20T03:53:36;21.00;;;2.22;;
55210;SDS011;41082;52.822;6.666;2023-12-20T03:56:01;24.83;;;2.35;;
55210;SDS011;41082;52.822;6.666;2023-12-20T03:58:27;19.83;;;2.17;;
55210;SDS011;41082;52.822;6.666;2023-12-20T04:00:53;24.67;;;2.60;;
55210;SDS011;41082;52.822;6.666;2023-12-20T04:03:19;25.70;;;3.22;;
55210;SDS011;41082;52.822;6.666;2023-12-20T04:05:44;23.92;;;3.28;;
55210;SDS011;41082;52.822;6.666;2023-12-20T04:08:10;23.58;;;2.15;;
55210;SDS011;41082;52.822;6.666;2023-12-20T04:10:36;27.27;;;2.50;;
55210;SDS011;41082;52.822;6.666;2023-12-20T04:13:02;25.05;;;3.00;;
55210;SDS011;41082;52.822;6.666;2023-12-20T04:15:28;21.15;;;2.45;;
55210;SDS011;41082;52.822;6.666;2023-12-20T04:17:54;25.83;;;3.55;;
55210;SDS011;41082;52.822;6.666;2023-12-20T04:20:19;25.50;;;2.63;;
55210;SDS011;41082;52.822;6.666;2023-12-20T04:22:45;29.75;;;4.43;;
55210;SDS011;41082;52.822;6.666;2023-12-20T04:25:11;22.13;;;2.65;;
55210;SDS011;41082;52.822;6.666;2023-12-20T04:27:36;22.63;;;2.38;;
55210;SDS011;41082;52.822;6.666;2023-12-20T04:30:02;23.05;;;2.00;;
55210;SDS011;41082;52.822;6.666;2023-12-20T04:32:28;24.23;;;3.33;;
55210;SDS011;41082;52.822;6.666;2023-12-20T04:34:54;22.80;;;2.45;;
55210;SDS011;41082;52.822;6.666;2023-12-20T04:37:20;25.98;;;3.45;;
55210;SDS011;41082;52.822;6.666;2023-12-20T04:39:45;23.33;;;2.58;;
55210;SDS011;41082;52.822;6.666;2023-12-20T04:42:11;24.27;;;2.60;;
55210;SDS011;41082;52.822;6.666;2023-12-20T04:44:37;25.15;;;2.30;;
55210;SDS011;41082;52.822;6.666;2023-12-20T04:47:02;24.42;;;2.53;;
55210;SDS011;41082;52.822;6.666;2023-12-20T04:49:28;23.83;;;2.63;;
55210;SDS011;41082;52.822;6.666;2023-12-20T04:51:53;25.13;;;3.63;;
55210;SDS011;41082;52.822;6.666;2023-12-20T04:54:19;21.95;;;2.72;;
55210;SDS011;41082;52.822;6.666;2023-12-20T04:56:45;25.27;;;3.50;;
55210;SDS011;41082;52.822;6.666;2023-12-20T04:59:10;25.73;;;2.63;;
55210;SDS011;41082;52.822;6.666;2023-12-20T05:01:36;21.00;;;2.85;;
55210;SDS011;41082;52.822;6.666;2023-12-20T05:04:01;24.23;;;3.08;;
55210;SDS011;41082;52.822;6.666;2023-12-20T05:06:27;28.67;;;3.28;;
55210;SDS011;41082;52.822;6.666;2023-12-20T05:08:53;15.80;;;2.05;;
55210;SDS011;41082;52.822;6.666;2023-12-20T05:11:18;29.35;;;2.92;;
55210;SDS011;41082;52.822;6.666;2023-12-20T05:13:44;21.73;;;2.35;;
55210;SDS011;41082;52.822;6.666;2023-12-20T05:16:09;21.48;;;2.47;;
55210;SDS011;41082;52.822;6.666;2023-12-20T05:18:35;27.83;;;3.00;;
55210;SDS011;41082;52.822;6.666;2023-12-20T05:21:01;24.50;;;4.00;;
55210;SDS011;41082;52.822;6.666;2023-12-20T05:23:26;25.65;;;3.55;;
55210;SDS011;41082;52.822;6.666;2023-12-20T05:25:52;23.17;;;2.85;;
55210;SDS011;41082;52.822;6.666;2023-12-20T05:28:18;22.95;;;3.13;;
55210;SDS011;41082;52.822;6.666;2023-12-20T05:30:43;25.83;;;2.35;;
55210;SDS011;41082;52.822;6.666;2023-12-20T05:33:09;29.60;;;3.17;;
55210;SDS011;41082;52.822;6.666;2023-12-20T05:35:34;21.88;;;2.65;;
55210;SDS011;41082;52.822;6.666;2023-12-20T05:38:00;22.83;;;2.83;;
55210;SDS011;41082;52.822;6.666;2023-12-20T05:40:26;21.33;;;2.40;;
55210;SDS011;41082;52.822;6.666;2023-12-20T05:42:51;29.52;;;3.90;;
55210;SDS011;41082;52.822;6.666;2023-12-20T05:45:17;22.75;;;3.03;;
55210;SDS011;41082;52.822;6.666;2023-12-20T05:47:42;30.92;;;3.10;;
55210;SDS011;41082;52.822;6.666;2023-12-20T05:50:08;28.45;;;3.03;;
55210;SDS011;41082;52.822;6.666;2023-12-20T05:52:34;25.08;;;3.50;;
55210;SDS011;41082;52.822;6.666;2023-12-20T05:54:59;27.55;;;3.08;;
55210;SDS011;41082;52.822;6.666;2023-12-20T05:57:28;24.58;;;2.85;;
55210;SDS011;41082;52.822;6.666;2023-12-20T05:59:54;26.10;;;2.70;;
55210;SDS011;41082;52.822;6.666;2023-12-20T06:02:19;25.75;;;3.03;;
55210;SDS011;41082;52.822;6.666;2023-12-20T06:04:45;26.63;;;2.95;;
55210;SDS011;41082;52.822;6.666;2023-12-20T06:07:11;16.08;;;2.45;;
55210;SDS011;41082;52.822;6.666;2023-12-20T06:09:37;23.73;;;2.80;;
55210;SDS011;41082;52.822;6.666;2023-12-20T06:12:03;25.30;;;2.72;;
55210;SDS011;41082;52.822;6.666;2023-12-20T06:14:29;22.75;;;2.28;;
55210;SDS011;41082;52.822;6.666;2023-12-20T06:16:55;18.10;;;2.88;;
55210;SDS011;41082;52.822;6.666;2023-12-20T06:19:22;26.88;;;3.17;;
55210;SDS011;41082;52.822;6.666;2023-12-20T06:21:47;23.13;;;2.15;;
55210;SDS011;41082;52.822;6.666;2023-12-20T06:24:13;18.85;;;2.50;;
55210;SDS011;41082;52.822;6.666;2023-12-20T06:26:39;25.30;;;3.30;;
55210;SDS011;41082;52.822;6.666;2023-12-20T06:29:05;25.45;;;2.70;;
55210;SDS011;41082;52.822;6.666;2023-12-20T06:31:30;19.35;;;2.40;;
55210;SDS011;41082;52.822;6.666;2023-12-20T06:33:58;17.98;;;2.22;;
55210;SDS011;41082;52.822;6.666;2023-12-20T06:36:25;17.50;;;2.30;;
55210;SDS011;41082;52.822;6.666;2023-12-20T06:38:51;22.60;;;2.55;;
55210;SDS011;41082;52.822;6.666;2023-12-20T06:41:17;23.42;;;2.58;;
55210;SDS011;41082;52.822;6.666;2023-12-20T06:43:42;22.75;;;2.60;;
55210;SDS011;41082;52.822;6.666;2023-12-20T06:46:08;21.50;;;2.95;;
55210;SDS011;41082;52.822;6.666;2023-12-20T06:48:34;16.48;;;2.10;;
55210;SDS011;41082;52.822;6.666;2023-12-20T06:51:00;25.92;;;2.10;;
55210;SDS011;41082;52.822;6.666;2023-12-20T06:53:29;27.27;;;2.47;;
55210;SDS011;41082;52.822;6.666;2023-12-20T06:55:54;23.92;;;2.45;;
55210;SDS011;41082;52.822;6.666;2023-12-20T06:58:21;22.75;;;3.55;;
55210;SDS011;41082;52.822;6.666;2023-12-20T07:00:47;19.50;;;2.08;;
55210;SDS011;41082;52.822;6.666;2023-12-20T07:03:13;22.23;;;2.72;;
55210;SDS011;41082;52.822;6.666;2023-12-20T07:05:38;22.25;;;3.08;;
55210;SDS011;41082;52.822;6.666;2023-12-20T07:08:04;24.83;;;2.95;;
55210;SDS011;41082;52.822;6.666;2023-12-20T07:10:30;25.98;;;2.22;;
55210;SDS011;41082;52.822;6.666;2023-12-20T07:12:56;19.00;;;3.28;;
55210;SDS011;41082;52.822;6.666;2023-12-20T07:15:21;18.83;;;1.90;;
55210;SDS011;41082;52.822;6.666;2023-12-20T07:17:47;24.85;;;3.58;;
55210;SDS011;41082;52.822;6.666;2023-12-20T07:20:13;18.25;;;2.20;;
55210;SDS011;41082;52.822;6.666;2023-12-20T07:22:38;24.73;;;2.65;;
55210;SDS011;41082;52.822;6.666;2023-12-20T07:25:04;21.83;;;2.85;;
55210;SDS011;41082;52.822;6.666;2023-12-20T07:27:30;22.20;;;2.28;;
55210;SDS011;41082;52.822;6.666;2023-12-20T07:29:56;15.18;;;2.22;;
55210;SDS011;41082;52.822;6.666;2023-12-20T07:32:22;21.70;;;2.47;;
55210;SDS011;41082;52.822;6.666;2023-12-20T07:34:47;26.92;;;2.85;;
55210;SDS011;41082;52.822;6.666;2023-12-20T07:37:13;26.98;;;2.83;;
55210;SDS011;41082;52.822;6.666;2023-12-20T07:39:39;21.13;;;2.80;;
55210;SDS011;41082;52.822;6.666;2023-12-20T07:42:05;23.00;;;2.22;;
55210;SDS011;41082;52.822;6.666;2023-12-20T07:44:32;16.83;;;3.13;;
55210;SDS011;41082;52.822;6.666;2023-12-20T07:46:57;29.58;;;4.28;;
55210;SDS011;41082;52.822;6.666;2023-12-20T07:49:23;30.00;;;3.40;;
55210;SDS011;41082;52.822;6.666;2023-12-20T07:51:49;25.08;;;2.85;;
55210;SDS011;41082;52.822;6.666;2023-12-20T07:54:15;23.23;;;2.40;;
55210;SDS011;41082;52.822;6.666;2023-12-20T07:56:41;20.42;;;2.33;;
55210;SDS011;41082;52.822;6.666;2023-12-20T07:59:06;24.05;;;2.67;;
55210;SDS011;41082;52.822;6.666;2023-12-20T08:01:32;19.17;;;2.95;;
55210;SDS011;41082;52.822;6.666;2023-12-20T08:03:58;27.48;;;3.85;;
55210;SDS011;41082;52.822;6.666;2023-12-20T08:06:23;22.98;;;2.80;;
55210;SDS011;41082;52.822;6.666;2023-12-20T08:08:49;17.15;;;2.42;;
55210;SDS011;41082;52.822;6.666;2023-12-20T08:11:14;28.95;;;3.70;;
55210;SDS011;41082;52.822;6.666;2023-12-20T08:13:40;23.95;;;2.65;;
55210;SDS011;41082;52.822;6.666;2023-12-20T08:16:06;21.58;;;3.78;;
55210;SDS011;41082;52.822;6.666;2023-12-20T08:18:32;24.45;;;2.67;;
55210;SDS011;41082;52.822;6.666;2023-12-20T08:20:57;19.70;;;2.95;;
55210;SDS011;41082;52.822;6.666;2023-12-20T08:23:23;20.85;;;2.38;;
55210;SDS011;41082;52.822;6.666;2023-12-20T08:25:48;25.27;;;3.17;;
55210;SDS011;41082;52.822;6.666;2023-12-20T08:28:14;23.10;;;2.30;;
55210;SDS011;41082;52.822;6.666;2023-12-20T08:30:40;28.48;;;3.63;;
55210;SDS011;41082;52.822;6.666;2023-12-20T08:33:06;22.77;;;2.42;;
55210;SDS011;41082;52.822;6.666;2023-12-20T08:35:36;20.40;;;2.92;;
55210;SDS011;41082;52.822;6.666;2023-12-20T08:38:02;21.55;;;2.72;;
55210;SDS011;41082;52.822;6.666;2023-12-20T08:40:29;16.80;;;3.00;;
55210;SDS011;41082;52.822;6.666;2023-12-20T08:42:55;20.95;;;2.45;;
55210;SDS011;41082;52.822;6.666;2023-12-20T08:45:20;17.88;;;3.55;;
55210;SDS011;41082;52.822;6.666;2023-12-20T08:47:46;18.85;;;2.88;;
55210;SDS011;41082;52.822;6.666;2023-12-20T08:50:12;19.60;;;2.13;;
55210;SDS011;41082;52.822;6.666;2023-12-20T08:52:37;18.98;;;1.98;;
55210;SDS011;41082;52.822;6.666;2023-12-20T08:55:03;26.80;;;3.22;;
55210;SDS011;41082;52.822;6.666;2023-12-20T08:57:29;21.23;;;2.67;;
55210;SDS011;41082;52.822;6.666;2023-12-20T08:59:56;15.02;;;2.60;;
55210;SDS011;41082;52.822;6.666;2023-12-20T09:02:22;19.58;;;2.90;;
55210;SDS011;41082;52.822;6.666;2023-12-20T09:04:48;17.02;;;2.15;;
55210;SDS011;41082;52.822;6.666;2023-12-20T09:07:23;18.38;;;2.60;;
55210;SDS011;41082;52.822;6.666;2023-12-20T09:09:52;22.60;;;3.28;;
55210;SDS011;41082;52.822;6.666;2023-12-20T09:12:21;24.17;;;2.42;;
55210;SDS011;41082;52.822;6.666;2023-12-20T09:14:48;17.27;;;2.35;;
55210;SDS011;41082;52.822;6.666;2023-12-20T09:17:14;22.00;;;3.47;;
55210;SDS011;41082;52.822;6.666;2023-12-20T09:19:41;18.80;;;2.00;;
55210;SDS011;41082;52.822;6.666;2023-12-20T09:22:08;23.35;;;3.05;;
55210;SDS011;41082;52.822;6.666;2023-12-20T09:24:35;24.90;;;2.88;;
55210;SDS011;41082;52.822;6.666;2023-12-20T09:27:00;19.95;;;2.13;;
55210;SDS011;41082;52.822;6.666;2023-12-20T09:29:26;23.55;;;2.65;;
55210;SDS011;41082;52.822;6.666;2023-12-20T09:31:52;20.02;;;2.78;;
55210;SDS011;41082;52.822;6.666;2023-12-20T09:34:17;24.42;;;3.00;;
55210;SDS011;41082;52.822;6.666;2023-12-20T09:36:43;19.77;;;2.85;;
55210;SDS011;41082;52.822;6.666;2023-12-20T09:39:15;21.83;;;2.70;;
55210;SDS011;41082;52.822;6.666;2023-12-20T09:42:00;23.40;;;2.72;;
55210;SDS011;41082;52.822;6.666;2023-12-20T09:44:27;16.35;;;2.30;;
55210;SDS011;41082;52.822;6.666;2023-12-20T09:46:54;18.15;;;2.28;;
55210;SDS011;41082;52.822;6.666;2023-12-20T09:49:20;12.50;;;1.35;;
55210;SDS011;41082;52.822;6.666;2023-12-20T09:51:47;9.75;;;0.85;;
55210;SDS011;41082;52.822;6.666;2023-12-20T09:54:22;5.93;;;0.45;;
55210;SDS011;41082;52.822;6.666;2023-12-20T09:56:48;3.42;;;0.30;;
55210;SDS011;41082;52.822;6.666;2023-12-20T09:59:14;7.07;;;0.40;;
55210;SDS011;41082;52.822;6.666;2023-12-20T10:01:40;7.68;;;0.45;;
55210;SDS011;41082;52.822;6.666;2023-12-20T10:04:07;9.00;;;0.90;;
55210;SDS011;41082;52.822;6.666;2023-12-20T10:06:52;7.13;;;0.40;;
55210;SDS011;41082;52.822;6.666;2023-12-20T10:09:17;7.15;;;0.95;;
55210;SDS011;41082;52.822;6.666;2023-12-20T10:11:43;6.70;;;0.50;;
55210;SDS011;41082;52.822;6.666;2023-12-20T10:14:10;8.27;;;0.45;;
55210;SDS011;41082;52.822;6.666;2023-12-20T10:16:36;7.22;;;0.70;;
55210;SDS011;41082;52.822;6.666;2023-12-20T10:19:01;8.32;;;0.47;;
55210;SDS011;41082;52.822;6.666;2023-12-20T10:21:27;6.82;;;0.40;;
55210;SDS011;41082;52.822;6.666;2023-12-20T10:23:56;5.35;;;0.40;;
55210;SDS011;41082;52.822;6.666;2023-12-20T10:26:23;8.38;;;0.70;;
55210;SDS011;41082;52.822;6.666;2023-12-20T10:28:53;7.85;;;1.38;;
55210;SDS011;41082;52.822;6.666;2023-12-20T10:31:34;6.25;;;0.40;;
55210;SDS011;41082;52.822;6.666;2023-12-20T10:34:01;8.90;;;0.40;;
55210;SDS011;41082;52.822;6.666;2023-12-20T10:36:31;5.80;;;0.43;;
55210;SDS011;41082;52.822;6.666;2023-12-20T10:38:58;4.05;;;0.40;;
55210;SDS011;41082;52.822;6.666;2023-12-20T10:41:25;6.65;;;0.32;;
55210;SDS011;41082;52.822;6.666;2023-12-20T10:43:53;6.45;;;0.30;;
55210;SDS011;41082;52.822;6.666;2023-12-20T10:46:27;7.78;;;0.40;;
55210;SDS011;41082;52.822;6.666;2023-12-20T10:48:54;9.65;;;0.45;;
55210;SDS011;41082;52.822;6.666;2023-12-20T10:51:24;6.45;;;0.50;;
55210;SDS011;41082;52.822;6.666;2023-12-20T10:53:55;5.50;;;0.40;;
55210;SDS011;41082;52.822;6.666;2023-12-20T10:56:21;9.50;;;0.40;;
55210;SDS011;41082;52.822;6.666;2023-12-20T10:58:48;6.63;;;0.40;;
55210;SDS011;41082;52.822;6.666;2023-12-20T11:01:15;5.47;;;0.57;;
55210;SDS011;41082;52.822;6.666;2023-12-20T11:03:50;10.68;;;0.60;;
55210;SDS011;41082;52.822;6.666;2023-12-20T11:14:54;8.70;;;0.45;;
55210;SDS011;41082;52.822;6.666;2023-12-20T11:17:22;8.30;;;0.50;;
55210;SDS011;41082;52.822;6.666;2023-12-20T11:22:18;8.30;;;0.40;;
55210;SDS011;41082;52.822;6.666;2023-12-20T11:24:47;5.78;;;0.50;;
55210;SDS011;41082;52.822;6.666;2023-12-20T11:27:14;11.00;;;0.75;;
55210;SDS011;41082;52.822;6.666;2023-12-20T11:29:40;10.50;;;0.50;;
55210;SDS011;41082;52.822;6.666;2023-12-20T11:32:27;13.63;;;0.63;;
55210;SDS011;41082;52.822;6.666;2023-12-20T11:34:55;8.90;;;0.93;;
55210;SDS011;41082;52.822;6.666;2023-12-20T11:37:28;7.40;;;0.80;;
55210;SDS011;41082;52.822;6.666;2023-12-20T11:39:59;9.27;;;0.75;;
55210;SDS011;41082;52.822;6.666;2023-12-20T11:42:49;7.60;;;0.40;;
55210;SDS011;41082;52.822;6.666;2023-12-20T11:45:20;9.23;;;1.00;;
55210;SDS011;41082;52.822;6.666;2023-12-20T11:47:47;11.23;;;0.68;;
55210;SDS011;41082;52.822;6.666;2023-12-20T11:50:18;12.20;;;0.93;;
55210;SDS011;41082;52.822;6.666;2023-12-20T11:52:44;6.15;;;0.40;;
55210;SDS011;41082;52.822;6.666;2023-12-20T11:55:09;9.75;;;0.55;;
55210;SDS011;41082;52.822;6.666;2023-12-20T11:57:35;8.60;;;0.70;;
55210;SDS011;41082;52.822;6.666;2023-12-20T12:00:02;9.52;;;1.38;;
55210;SDS011;41082;52.822;6.666;2023-12-20T12:02:28;7.47;;;1.65;;
55210;SDS011;41082;52.822;6.666;2023-12-20T12:04:56;11.05;;;0.93;;
55210;SDS011;41082;52.822;6.666;2023-12-20T12:07:23;8.13;;;0.80;;
55210;SDS011;41082;52.822;6.666;2023-12-20T12:09:49;11.80;;;1.10;;
55210;SDS011;41082;52.822;6.666;2023-12-20T12:12:15;9.10;;;0.93;;
55210;SDS011;41082;52.822;6.666;2023-12-20T12:14:41;11.20;;;1.27;;
55210;SDS011;41082;52.822;6.666;2023-12-20T12:17:13;14.65;;;1.75;;
55210;SDS011;41082;52.822;6.666;2023-12-20T12:19:40;9.18;;;0.52;;
55210;SDS011;41082;52.822;6.666;2023-12-20T12:22:07;10.52;;;0.68;;
55210;SDS011;41082;52.822;6.666;2023-12-20T12:24:36;10.48;;;0.60;;
55210;SDS011;41082;52.822;6.666;2023-12-20T12:27:02;10.18;;;0.60;;
55210;SDS011;41082;52.822;6.666;2023-12-20T12:29:28;14.00;;;0.70;;
55210;SDS011;41082;52.822;6.666;2023-12-20T12:31:54;10.98;;;1.27;;
55210;SDS011;41082;52.822;6.666;2023-12-20T12:34:20;6.82;;;0.50;;
55210;SDS011;41082;52.822;6.666;2023-12-20T12:36:45;7.30;;;1.25;;
55210;SDS011;41082;52.822;6.666;2023-12-20T12:39:14;10.63;;;0.50;;
55210;SDS011;41082;52.822;6.666;2023-12-20T12:41:42;13.50;;;0.90;;
55210;SDS011;41082;52.822;6.666;2023-12-20T12:44:08;9.60;;;0.70;;
55210;SDS011;41082;52.822;6.666;2023-12-20T12:46:34;7.45;;;0.70;;
55210;SDS011;41082;52.822;6.666;2023-12-20T12:48:59;10.25;;;0.93;;
55210;SDS011;41082;52.822;6.666;2023-12-20T12:51:25;11.77;;;0.65;;
55210;SDS011;41082;52.822;6.666;2023-12-20T12:53:51;6.57;;;0.50;;
55210;SDS011;41082;52.822;6.666;2023-12-20T12:56:18;7.05;;;0.80;;
55210;SDS011;41082;52.822;6.666;2023-12-20T12:58:44;9.15;;;0.70;;
55210;SDS011;41082;52.822;6.666;2023-12-20T13:01:10;9.68;;;0.60;;
55210;SDS011;41082;52.822;6.666;2023-12-20T13:03:36;8.68;;;0.40;;
55210;SDS011;41082;52.822;6.666;2023-12-20T13:06:02;8.55;;;0.70;;
55210;SDS011;41082;52.822;6.666;2023-12-20T13:08:28;8.77;;;0.60;;
55210;SDS011;41082;52.822;6.666;2023-12-20T13:10:54;10.20;;;0.73;;
55210;SDS011;41082;52.822;6.666;2023-12-20T13:13:22;10.10;;;0.68;;
55210;SDS011;41082;52.822;6.666;2023-12-20T13:15:47;7.85;;;0.55;;
55210;SDS011;41082;52.822;6.666;2023-12-20T13:18:17;9.20;;;0.43;;
55210;SDS011;41082;52.822;6.666;2023-12-20T13:20:44;9.88;;;0.50;;
55210;SDS011;41082;52.822;6.666;2023-12-20T13:23:10;6.30;;;0.77;;
55210;SDS011;41082;52.822;6.666;2023-12-20T13:25:35;7.68;;;0.70;;
55210;SDS011;41082;52.822;6.666;2023-12-20T13:28:01;11.10;;;0.98;;
55210;SDS011;41082;52.822;6.666;2023-12-20T13:30:28;6.75;;;0.50;;
55210;SDS011;41082;52.822;6.666;2023-12-20T13:32:54;8.85;;;0.50;;
55210;SDS011;41082;52.822;6.666;2023-12-20T13:35:20;11.18;;;1.35;;
55210;SDS011;41082;52.822;6.666;2023-12-20T13:37:46;9.20;;;0.80;;
55210;SDS011;41082;52.822;6.666;2023-12-20T13:40:12;8.25;;;1.27;;
55210;SDS011;41082;52.822;6.666;2023-12-20T13:42:38;8.30;;;0.50;;
55210;SDS011;41082;52.822;6.666;2023-12-20T13:45:05;8.73;;;1.00;;
55210;SDS011;41082;52.822;6.666;2023-12-20T13:47:31;9.90;;;0.75;;
55210;SDS011;41082;52.822;6.666;2023-12-20T13:49:57;9.95;;;0.85;;
55210;SDS011;41082;52.822;6.666;2023-12-20T13:52:23;12.52;;;0.73;;
55210;SDS011;41082;52.822;6.666;2023-12-20T13:54:48;8.40;;;0.57;;
55210;SDS011;41082;52.822;6.666;2023-12-20T13:57:14;8.23;;;0.60;;
55210;SDS011;41082;52.822;6.666;2023-12-20T13:59:40;8.75;;;0.65;;
55210;SDS011;41082;52.822;6.666;2023-12-20T14:02:05;10.18;;;1.10;;
55210;SDS011;41082;52.822;6.666;2023-12-20T14:04:31;6.18;;;0.38;;
55210;SDS011;41082;52.822;6.666;2023-12-20T14:06:57;10.25;;;0.60;;
55210;SDS011;41082;52.822;6.666;2023-12-20T14:09:23;10.48;;;0.50;;
55210;SDS011;41082;52.822;6.666;2023-12-20T14:11:48;5.03;;;0.40;;
55210;SDS011;41082;52.822;6.666;2023-12-20T14:14:14;8.00;;;0.52;;
55210;SDS011;41082;52.822;6.666;2023-12-20T14:16:39;6.63;;;0.50;;
55210;SDS011;41082;52.822;6.666;2023-12-20T14:19:06;9.52;;;0.70;;
55210;SDS011;41082;52.822;6.666;2023-12-20T14:21:34;7.55;;;0.38;;
55210;SDS011;41082;52.822;6.666;2023-12-20T14:24:00;7.10;;;0.40;;
55210;SDS011;41082;52.822;6.666;2023-12-20T14:26:25;6.93;;;0.57;;
55210;SDS011;41082;52.822;6.666;2023-12-20T14:28:53;8.40;;;0.60;;
55210;SDS011;41082;52.822;6.666;2023-12-20T14:31:19;8.15;;;0.38;;
55210;SDS011;41082;52.822;6.666;2023-12-20T14:33:44;8.07;;;0.50;;
55210;SDS011;41082;52.822;6.666;2023-12-20T14:36:11;7.57;;;0.50;;
55210;SDS011;41082;52.822;6.666;2023-12-20T14:38:37;8.95;;;0.60;;
55210;SDS011;41082;52.822;6.666;2023-12-20T14:41:03;4.95;;;0.40;;
55210;SDS011;41082;52.822;6.666;2023-12-20T14:43:29;5.88;;;0.30;;